Time;durP1;ratioP1;P1;durP2;ratioP2;P2;SDS_P1;SDS_P2;PMS_P1;PMS_P2;Temp;Humidity;BMP_temperature;BMP_pressure;BME280_temperature;BME280_humidity;BME280_pressure;Samples;Min_cycle;Max_cycle;Signal;HPM_P1;HPM_P2
2021/12/11 00:02:12;;;;;;;;;60.25;44.00;;;;;6.75;52.92;97658.75;6181688;28;96557;-65
2021/12/11 00:05:17;;;;;;;;;53.50;43.00;;;;;6.70;53.28;97657.78;6189647;28;97416;-65
2021/12/11 00:08:24;;;;;;;;;57.60;44.00;;;;;6.68;53.26;97665.25;6172743;28;96673;-65
2021/12/11 00:11:32;;;;;;;;;57.40;44.00;;;;;6.65;53.23;97671.03;6186053;28;97074;-65
2021/12/11 00:14:39;;;;;;;;;57.60;43.40;;;;;6.45;53.59;97671.31;6184048;28;97579;-65
2021/12/11 00:17:42;;;;;;;;;53.00;41.00;;;;;6.39;53.89;97678.38;6189338;28;97356;-65
2021/12/11 00:20:53;;;;;;;;;55.75;41.75;;;;;6.38;54.03;97682.09;6189299;28;97580;-64
2021/12/11 00:24:00;;;;;;;;;56.00;43.00;;;;;6.45;54.00;97684.69;6180757;28;97850;-65
2021/12/11 00:27:09;;;;;;;;;56.00;44.00;;;;;6.56;53.80;97683.91;6189215;28;96315;-64
2021/12/11 00:30:21;;;;;;;;;55.50;43.00;;;;;6.61;53.72;97688.59;6189774;28;96529;-64
2021/12/11 00:33:28;;;;;;;;;56.00;42.60;;;;;6.59;53.52;97696.06;6161434;28;98612;-65
2021/12/11 00:36:32;;;;;;;;;55.50;42.00;;;;;6.66;53.28;97683.38;6188159;28;96799;-65
2021/12/11 00:39:45;;;;;;;;;56.00;43.00;;;;;6.56;53.09;97691.13;6188778;28;97075;-65
2021/12/11 00:42:52;;;;;;;;;49.25;39.25;;;;;6.52;53.22;97688.91;6168099;28;96735;-64
2021/12/11 00:45:58;;;;;;;;;52.25;41.00;;;;;6.46;53.06;97694.34;6139791;28;96291;-65
2021/12/11 00:49:13;;;;;;;;;52.00;40.00;;;;;6.38;53.23;97694.66;6154603;28;96897;-65
2021/12/11 00:52:17;;;;;;;;;53.50;41.00;;;;;6.40;53.11;97706.75;6154411;28;98377;-66
2021/12/11 00:55:24;;;;;;;;;49.80;39.40;;;;;6.34;53.45;97718.38;6162712;28;98277;-65
2021/12/11 00:58:32;;;;;;;;;51.60;40.00;;;;;6.29;53.36;97698.69;6163918;28;96994;-65
2021/12/11 01:01:38;;;;;;;;;50.60;41.00;;;;;6.51;53.28;97746.19;6159181;28;96535;-64
2021/12/11 01:04:42;;;;;;;;;54.40;41.20;;;;;6.48;53.23;97748.50;6160157;28;97021;-64
2021/12/11 01:07:46;;;;;;;;;55.20;44.00;;;;;6.38;53.29;97753.53;6145024;28;97704;-65
2021/12/11 01:10:53;;;;;;;;;54.60;41.00;;;;;6.46;53.13;97767.44;6163559;28;97063;-65
2021/12/11 01:14:13;;;;;;;;;53.00;42.00;;;;;6.52;53.29;97769.25;6150104;28;97391;-64
2021/12/11 01:17:21;;;;;;;;;52.20;40.40;;;;;6.62;53.05;97781.28;6163545;28;96901;-64
2021/12/11 01:20:35;;;;;;;;;51.00;41.00;;;;;6.60;52.78;97789.53;6163600;28;96930;-64
2021/12/11 01:23:56;;;;;;;;;54.00;41.00;;;;;6.59;52.82;97787.09;6151669;28;97524;-65
2021/12/11 01:27:04;;;;;;;;;50.00;40.00;;;;;6.58;52.93;97780.09;6162970;28;97154;-64
2021/12/11 01:30:14;;;;;;;;;54.50;39.50;;;;;6.51;52.79;97794.38;6160779;28;96508;-65
2021/12/11 01:33:18;;;;;;;;;54.50;41.00;;;;;6.57;52.97;97794.53;6151627;28;97021;-65
2021/12/11 01:36:22;;;;;;;;;50.00;38.00;;;;;6.16;53.15;97771.88;6161542;28;96903;-65
2021/12/11 01:39:29;;;;;;;;;49.00;38.00;;;;;6.31;53.00;97795.59;6161624;28;97942;-65
2021/12/11 01:42:34;;;;;;;;;48.60;37.40;;;;;6.28;52.95;97790.72;6152009;28;97077;-65
2021/12/11 01:45:43;;;;;;;;;52.00;38.00;;;;;6.32;52.97;97783.88;6163178;28;97573;-64
2021/12/11 01:48:53;;;;;;;;;48.60;39.00;;;;;6.33;53.29;97791.69;6162609;28;96392;-65
2021/12/11 01:52:01;;;;;;;;;49.00;39.00;;;;;6.41;53.28;97796.75;6155681;28;98035;-64
2021/12/11 01:55:09;;;;;;;;;51.20;39.00;;;;;6.51;53.06;97793.56;6159544;28;96919;-64
2021/12/11 01:58:16;;;;;;;;;53.75;41.00;;;;;6.53;52.91;97788.81;6163286;28;97375;-64
2021/12/11 02:01:28;;;;;;;;;48.20;39.00;;;;;6.65;52.84;97800.41;6155894;28;96915;-64
2021/12/11 02:04:35;;;;;;;;;53.20;40.80;;;;;6.71;52.62;97796.00;6150736;28;97934;-65
2021/12/11 02:07:43;;;;;;;;;52.25;40.00;;;;;6.70;52.58;97794.38;6162480;28;96538;-65
2021/12/11 02:10:54;;;;;;;;;53.25;40.50;;;;;6.75;52.53;97811.41;6162903;28;96949;-65
2021/12/11 02:14:00;;;;;;;;;54.40;40.40;;;;;6.74;52.70;97807.13;6152751;28;96836;-65
2021/12/11 02:17:07;;;;;;;;;50.00;39.00;;;;;6.81;52.55;97801.66;6162782;28;96963;-65
2021/12/11 02:20:21;;;;;;;;;52.75;39.75;;;;;6.84;52.35;97803.91;6162593;28;96652;-65
2021/12/11 02:23:27;;;;;;;;;53.40;40.40;;;;;6.89;52.19;97814.78;6152545;28;97570;-65
2021/12/11 02:26:32;;;;;;;;;48.80;37.80;;;;;6.94;52.18;97820.25;6162792;28;97338;-65
2021/12/11 02:29:40;;;;;;;;;51.40;40.60;;;;;6.94;51.97;97826.44;6162694;28;97110;-65
2021/12/11 02:32:50;;;;;;;;;51.60;38.60;;;;;6.94;51.77;97825.59;6152160;28;98157;-65
2021/12/11 02:35:56;;;;;;;;;50.00;39.40;;;;;6.96;51.72;97829.72;6162518;28;97933;-65
2021/12/11 02:39:09;;;;;;;;;52.50;40.00;;;;;6.94;51.76;97847.88;6163016;28;96666;-65
2021/12/11 02:42:20;;;;;;;;;49.40;39.60;;;;;6.92;52.07;97843.78;6150911;28;96382;-65
2021/12/11 02:45:29;;;;;;;;;50.75;39.00;;;;;6.84;52.04;97847.56;6187834;28;97380;-65
2021/12/11 02:48:36;;;;;;;;;50.60;40.00;;;;;6.82;52.09;97852.34;6186612;28;97067;-65
2021/12/11 02:51:44;;;;;;;;;46.60;38.00;;;;;6.80;52.03;97856.28;6178798;28;97561;-64
2021/12/11 02:54:57;;;;;;;;;49.50;39.00;;;;;6.72;51.89;97851.22;6177604;28;96535;-64
2021/12/11 02:58:04;;;;;;;;;49.00;38.80;;;;;6.78;52.13;97856.53;6187441;28;97074;-64
2021/12/11 03:01:20;;;;;;;;;52.25;38.50;;;;;6.70;51.95;97870.19;6181175;28;96575;-65
2021/12/11 03:04:31;;;;;;;;;52.00;41.00;;;;;6.72;52.07;97864.59;6179321;28;97592;-64
2021/12/11 03:07:37;;;;;;;;;49.25;37.00;;;;;6.74;51.98;97866.03;6185595;28;97342;-63
2021/12/11 03:10:45;;;;;;;;;49.80;38.60;;;;;6.80;52.26;97869.66;6186064;28;97408;-64
2021/12/11 03:13:50;;;;;;;;;51.00;40.00;;;;;6.84;51.88;97869.00;6176497;28;97073;-64
2021/12/11 03:16:58;;;;;;;;;53.40;41.40;;;;;6.87;51.85;97868.56;6155060;28;97024;-65
2021/12/11 03:20:02;;;;;;;;;53.00;41.00;;;;;6.80;52.11;97865.13;6179412;28;97165;-66
2021/12/11 03:23:07;;;;;;;;;54.00;41.00;;;;;6.81;52.23;97869.44;6178174;28;97180;-65
2021/12/11 03:26:12;;;;;;;;;56.50;42.00;;;;;6.81;52.04;97882.84;6188658;28;97343;-64
2021/12/11 03:29:16;;;;;;;;;58.00;41.60;;;;;6.77;52.22;97872.81;6188505;28;96549;-65
2021/12/11 03:32:20;;;;;;;;;55.00;42.00;;;;;6.88;52.02;97878.25;6181030;28;96500;-64
2021/12/11 03:35:27;;;;;;;;;53.00;41.00;;;;;6.74;51.85;97858.00;6190722;28;97473;-65
2021/12/11 03:38:31;;;;;;;;;53.20;42.00;;;;;6.76;52.04;97855.09;6190997;28;97576;-63
2021/12/11 03:41:37;;;;;;;;;54.20;41.20;;;;;6.92;52.14;97879.44;6181235;28;99221;-64
2021/12/11 03:44:43;;;;;;;;;57.80;42.00;;;;;6.92;52.18;97879.44;6179208;28;97175;-64
2021/12/11 03:47:53;;;;;;;;;55.40;41.80;;;;;6.91;52.24;97885.00;6188879;28;97146;-64
2021/12/11 03:51:01;;;;;;;;;55.00;40.75;;;;;6.85;52.49;97886.72;6188903;28;98025;-64
2021/12/11 03:54:09;;;;;;;;;52.20;41.20;;;;;6.82;52.62;97897.06;6182829;28;96653;-64
2021/12/11 03:57:16;;;;;;;;;54.80;41.20;;;;;6.80;52.42;97894.59;6189315;28;97154;-64
2021/12/11 04:00:22;;;;;;;;;58.50;44.00;;;;;6.80;52.88;97902.63;6189634;28;96542;-64
2021/12/11 04:03:28;;;;;;;;;56.00;42.00;;;;;6.81;52.59;97901.59;6180550;28;99766;-65
2021/12/11 04:06:33;;;;;;;;;54.80;41.60;;;;;6.81;52.38;97898.91;6190101;28;98088;-65
2021/12/11 04:09:37;;;;;;;;;54.00;41.00;;;;;6.62;52.49;97885.72;6189391;28;98050;-65
2021/12/11 04:12:44;;;;;;;;;54.00;41.00;;;;;6.76;52.34;97893.41;6179035;28;97428;-64
2021/12/11 04:15:54;;;;;;;;;52.60;40.00;;;;;6.74;52.32;97906.22;6189466;28;97359;-64
2021/12/11 04:18:58;;;;;;;;;54.50;40.00;;;;;6.81;52.29;97914.16;6188181;28;96979;-64
2021/12/11 04:22:02;;;;;;;;;53.00;42.00;;;;;6.85;52.30;97920.72;6178680;28;99103;-64
2021/12/11 04:25:09;;;;;;;;;52.25;39.00;;;;;6.83;52.42;97920.97;6166381;28;98498;-65
2021/12/11 04:28:16;;;;;;;;;55.00;41.00;;;;;6.76;52.51;97928.22;6183423;28;97262;-64
2021/12/11 04:31:23;;;;;;;;;52.75;40.00;;;;;6.73;52.74;97936.72;6182390;28;96921;-65
2021/12/11 04:34:27;;;;;;;;;52.40;40.60;;;;;6.67;52.71;97937.59;6184757;28;96694;-64
2021/12/11 04:37:32;;;;;;;;;51.80;39.00;;;;;6.66;52.65;97943.97;6188590;28;96960;-65
2021/12/11 04:40:40;;;;;;;;;50.00;41.00;;;;;6.72;52.62;97943.09;6188802;28;96984;-64
2021/12/11 04:43:47;;;;;;;;;50.60;39.00;;;;;6.73;52.66;97942.06;6164934;28;96625;-64
2021/12/11 04:46:50;;;;;;;;;51.80;39.40;;;;;6.78;52.67;97942.22;6164034;28;96540;-64
2021/12/11 04:49:58;;;;;;;;;54.00;40.00;;;;;6.81;52.62;97955.16;6162682;28;97008;-63
2021/12/11 04:53:06;;;;;;;;;59.40;44.00;;;;;6.88;52.45;97955.13;6148400;28;97472;-63
2021/12/11 04:56:33;;;;;;;;;55.00;43.00;;;;;6.82;52.39;97956.81;6163770;28;97103;-64
2021/12/11 04:59:52;;;;;;;;;55.00;41.00;;;;;6.92;52.00;97965.19;6120774;28;96812;-63
2021/12/11 05:03:25;;;;;;;;;50.60;42.00;;;;;6.91;52.17;97976.94;6142886;28;97816;-63
2021/12/11 05:06:41;;;;;;;;;56.00;41.00;;;;;6.90;52.06;97983.31;6162457;28;97076;-64
2021/12/11 05:09:54;;;;;;;;;54.50;40.50;;;;;6.97;51.89;97980.59;6146327;28;97123;-64
2021/12/11 05:13:00;;;;;;;;;54.33;41.00;;;;;6.96;51.94;97993.16;6152060;28;97034;-64
2021/12/11 05:16:07;;;;;;;;;53.80;42.40;;;;;6.91;51.95;97995.69;6162954;28;96966;-64
2021/12/11 05:19:11;;;;;;;;;55.60;41.00;;;;;6.84;52.07;97980.72;6161657;28;96492;-65
2021/12/11 05:22:19;;;;;;;;;53.00;41.00;;;;;6.93;52.08;98007.00;6154221;28;99657;-65
2021/12/11 05:25:22;;;;;;;;;56.67;42.00;;;;;6.96;51.94;98006.56;6163712;28;97427;-65
2021/12/11 05:28:26;;;;;;;;;50.00;39.00;;;;;7.05;51.91;98012.44;6162466;28;96925;-64
2021/12/11 05:31:31;;;;;;;;;51.00;38.20;;;;;6.99;51.44;98012.53;6151754;28;96728;-65
2021/12/11 05:34:34;;;;;;;;;54.00;39.00;;;;;7.06;51.34;98013.28;6138034;28;97197;-65
2021/12/11 05:37:38;;;;;;;;;57.00;40.80;;;;;7.12;51.33;98028.47;6153388;28;97459;-64
2021/12/11 05:40:46;;;;;;;;;50.80;40.40;;;;;7.13;51.24;98024.78;6138829;28;96988;-65
2021/12/11 05:43:50;;;;;;;;;56.00;40.60;;;;;7.16;51.18;98032.34;6151244;28;96895;-63
2021/12/11 05:46:55;;;;;;;;;50.00;39.00;;;;;7.13;51.18;98040.84;6141966;28;97186;-64
2021/12/11 05:49:59;;;;;;;;;55.00;41.60;;;;;7.14;51.21;98039.78;6159905;28;98036;-64
2021/12/11 05:53:03;;;;;;;;;56.00;41.50;;;;;7.11;51.26;98035.69;6152227;28;97164;-65
2021/12/11 05:56:13;;;;;;;;;55.60;42.40;;;;;7.13;51.13;98044.34;6161837;28;97265;-64
2021/12/11 05:59:18;;;;;;;;;54.50;40.00;;;;;7.09;51.28;98047.66;6162405;28;97381;-64
2021/12/11 06:02:28;;;;;;;;;54.40;40.00;;;;;7.09;51.25;98055.69;6149275;28;98002;-65
2021/12/11 06:05:32;;;;;;;;;53.40;40.60;;;;;7.09;51.41;98055.69;6153819;28;97368;-64
2021/12/11 06:08:35;;;;;;;;;52.40;40.40;;;;;7.11;51.30;98059.81;6160675;28;97414;-64
2021/12/11 06:11:40;;;;;;;;;54.40;41.20;;;;;7.08;51.34;98059.44;6155810;28;96973;-64
2021/12/11 06:14:46;;;;;;;;;56.00;42.40;;;;;7.12;51.28;98064.16;6152782;28;96791;-64
2021/12/11 06:17:51;;;;;;;;;53.75;40.75;;;;;7.14;51.19;98075.44;6163639;28;97389;-64
2021/12/11 06:20:54;;;;;;;;;53.00;41.00;;;;;7.11;51.00;98083.13;6162560;28;96597;-63
2021/12/11 06:23:58;;;;;;;;;55.50;41.00;;;;;7.07;51.06;98079.25;6153466;28;96584;-64
2021/12/11 06:27:01;;;;;;;;;55.60;43.20;;;;;7.01;51.22;98080.09;6163553;28;96355;-65
2021/12/11 06:30:07;;;;;;;;;55.80;41.80;;;;;7.13;51.02;98097.13;6157513;28;97129;-65
2021/12/11 06:33:12;;;;;;;;;56.60;42.00;;;;;7.23;50.88;98102.81;6152649;28;97546;-65
2021/12/11 06:36:18;;;;;;;;;52.00;42.00;;;;;7.14;50.85;98118.34;6160637;28;96547;-64
2021/12/11 06:39:24;;;;;;;;;52.00;40.00;;;;;7.15;50.70;98121.84;6162143;28;96582;-63
2021/12/11 06:42:29;;;;;;;;;53.40;39.00;;;;;6.89;50.53;98075.44;6148659;28;97244;-64
2021/12/11 06:45:32;;;;;;;;;52.40;40.00;;;;;7.26;50.40;98121.16;6162168;28;97235;-65
2021/12/11 06:48:38;;;;;;;;;47.60;37.60;;;;;7.27;50.54;98123.63;6162412;28;97010;-64
2021/12/11 06:51:41;;;;;;;;;54.60;41.00;;;;;7.31;50.49;98124.81;6155544;28;97743;-65
2021/12/11 06:54:45;;;;;;;;;51.00;38.50;;;;;7.32;50.36;98122.94;6161193;28;97423;-64
2021/12/11 06:57:50;;;;;;;;;52.20;38.40;;;;;7.32;50.25;98126.47;6165542;28;97508;-64
2021/12/11 07:00:56;;;;;;;;;51.00;39.00;;;;;7.11;50.18;98105.38;6166747;28;97466;-65
2021/12/11 07:04:02;;;;;;;;;49.60;39.00;;;;;7.33;50.17;98143.38;6158815;28;97117;-64
2021/12/11 07:07:05;;;;;;;;;55.80;41.60;;;;;7.28;50.37;98151.25;6150459;28;97349;-64
2021/12/11 07:10:12;;;;;;;;;47.80;38.80;;;;;7.36;50.11;98170.56;6145699;28;96974;-65
2021/12/11 07:13:16;;;;;;;;;52.00;39.00;;;;;7.35;49.85;98185.00;6140852;28;97325;-64
2021/12/11 07:16:20;;;;;;;;;53.80;38.00;;;;;7.35;50.06;98181.50;6146856;28;97640;-64
2021/12/11 07:19:25;;;;;;;;;52.67;40.00;;;;;7.37;49.91;98182.09;6165009;28;98155;-64
2021/12/11 07:22:29;;;;;;;;;51.80;41.40;;;;;7.38;50.13;98181.03;6153284;28;99226;-64
2021/12/11 07:25:36;;;;;;;;;48.00;39.60;;;;;7.44;50.08;98176.66;6165402;28;97454;-63
2021/12/11 07:28:40;;;;;;;;;52.00;41.00;;;;;7.49;50.04;98174.16;6165446;28;97565;-63
2021/12/11 07:31:46;;;;;;;;;53.00;42.00;;;;;7.50;50.05;98173.13;6157558;28;97688;-65
2021/12/11 07:34:50;;;;;;;;;49.20;38.60;;;;;7.59;49.77;98169.13;6164568;28;97105;-64
2021/12/11 07:37:54;;;;;;;;;53.40;41.80;;;;;7.53;49.56;98167.31;6165149;28;97522;-64
2021/12/11 07:41:01;;;;;;;;;52.00;38.00;;;;;7.63;49.43;98192.59;6164284;28;96906;-65
2021/12/11 07:44:06;;;;;;;;;52.00;38.00;;;;;7.57;49.43;98201.53;6174151;28;97153;-63
2021/12/11 07:47:10;;;;;;;;;48.80;38.00;;;;;7.59;49.61;98212.03;6189834;28;96912;-65
2021/12/11 07:50:15;;;;;;;;;47.00;35.50;;;;;7.62;49.59;98219.66;6189979;28;96565;-64
2021/12/11 07:53:20;;;;;;;;;51.50;39.50;;;;;7.62;49.76;98219.66;6179015;28;97499;-64
2021/12/11 07:56:23;;;;;;;;;49.00;39.20;;;;;7.55;49.65;98219.72;6188355;28;96879;-64
2021/12/11 07:59:27;;;;;;;;;49.00;37.80;;;;;7.63;49.58;98238.19;6190435;28;97425;-64
2021/12/11 08:02:31;;;;;;;;;46.50;38.00;;;;;7.67;49.54;98260.88;6177088;28;96898;-65
2021/12/11 08:05:36;;;;;;;;;49.25;38.50;;;;;7.62;49.39;98263.41;6191418;28;97449;-65
2021/12/11 08:08:42;;;;;;;;;47.00;36.00;;;;;7.59;49.60;98263.81;6183215;28;98063;-64
2021/12/11 08:11:46;;;;;;;;;48.20;36.00;;;;;7.67;49.65;98268.91;6172786;28;97012;-64
2021/12/11 08:14:51;;;;;;;;;45.00;36.00;;;;;7.66;49.72;98269.97;6184735;28;96856;-64
2021/12/11 08:17:55;;;;;;;;;45.00;36.00;;;;;7.75;49.49;98262.47;6171393;28;97441;-64
2021/12/11 08:21:00;;;;;;;;;44.25;34.25;;;;;7.50;49.44;98222.22;6188113;28;98560;-65
2021/12/11 08:24:06;;;;;;;;;49.25;36.00;;;;;7.87;49.26;98260.69;6176357;28;97448;-66
2021/12/11 08:27:14;;;;;;;;;46.80;37.60;;;;;7.88;49.24;98269.56;6179141;28;97067;-64
2021/12/11 08:30:18;;;;;;;;;48.00;36.25;;;;;7.76;49.42;98272.16;6187441;28;96741;-64
2021/12/11 08:33:23;;;;;;;;;45.00;36.00;;;;;7.95;49.06;98279.22;6180846;28;99032;-65
2021/12/11 08:36:28;;;;;;;;;42.40;34.00;;;;;7.98;48.82;98288.69;6187037;28;97421;-64
2021/12/11 08:39:31;;;;;;;;;45.50;36.00;;;;;8.02;48.83;98322.09;6186440;28;97127;-64
2021/12/11 08:42:35;;;;;;;;;48.80;38.80;;;;;8.01;48.59;98320.47;6170860;28;97426;-64
2021/12/11 08:45:47;;;;;;;;;47.75;37.00;;;;;8.02;48.86;98322.94;6150369;28;97505;-64
2021/12/11 08:49:00;;;;;;;;;49.50;38.00;;;;;7.99;48.93;98331.44;6160134;28;96732;-65
2021/12/11 08:52:09;;;;;;;;;45.00;35.60;;;;;8.03;49.00;98335.31;6144914;28;96648;-65
2021/12/11 08:55:18;;;;;;;;;45.00;35.00;;;;;8.07;48.73;98344.56;6151558;28;97224;-64
2021/12/11 08:58:26;;;;;;;;;45.00;34.80;;;;;7.99;48.77;98347.53;6152276;28;97004;-65
2021/12/11 09:01:37;;;;;;;;;45.40;35.00;;;;;8.03;48.71;98356.78;6152578;28;96695;-65
2021/12/11 09:04:47;;;;;;;;;43.20;34.60;;;;;8.05;48.81;98373.50;6155605;28;97169;-65
2021/12/11 09:07:58;;;;;;;;;45.20;36.00;;;;;8.03;49.03;98377.44;6151138;28;97293;-64
2021/12/11 09:11:05;;;;;;;;;44.00;34.00;;;;;8.06;48.68;98367.09;6152648;28;97470;-65
2021/12/11 09:14:14;;;;;;;;;45.00;35.00;;;;;8.05;48.91;98372.69;6151108;28;96487;-64
2021/12/11 09:17:22;;;;;;;;;41.20;33.00;;;;;8.02;48.83;98378.47;6158802;28;97448;-65
2021/12/11 09:20:37;;;;;;;;;40.00;33.00;;;;;8.06;49.07;98391.25;6155234;28;97525;-64
2021/12/11 09:23:46;;;;;;;;;43.40;33.00;;;;;8.07;48.82;98392.91;6149422;28;97655;-65
2021/12/11 09:26:53;;;;;;;;;41.60;33.00;;;;;8.17;48.69;98392.41;6154023;28;97031;-65
2021/12/11 09:30:01;;;;;;;;;44.40;34.40;;;;;8.12;48.63;98393.06;6157335;28;97586;-65
2021/12/11 11:55:47;;;;;;;;;45.40;35.00;;;;;10.57;42.06;98518.47;6845014;22;97406;-66
2021/12/11 11:58:52;;;;;;;;;47.50;37.25;;;;;10.46;42.36;98525.44;6209031;28;97489;-63
2021/12/11 12:02:00;;;;;;;;;45.00;36.75;;;;;10.24;42.74;98530.53;6190450;28;97875;-64
2021/12/11 12:05:06;;;;;;;;;44.40;34.40;;;;;10.09;43.30;98540.88;6205854;28;96784;-64
2021/12/11 12:08:13;;;;;;;;;47.60;36.00;;;;;10.07;43.47;98520.59;6205244;28;97033;-64
2021/12/11 12:11:18;;;;;;;;;47.00;38.00;;;;;9.99;43.09;98505.56;6207653;28;97430;-64
2021/12/11 12:14:24;;;;;;;;;45.60;37.60;;;;;10.01;43.32;98522.34;6177524;28;98032;-64
2021/12/11 12:17:30;;;;;;;;;51.33;38.00;;;;;9.98;43.64;98520.06;6188351;28;97443;-64
2021/12/11 12:20:35;;;;;;;;;47.20;38.00;;;;;9.98;44.09;98528.97;6188146;28;97475;-64
2021/12/11 12:23:39;;;;;;;;;45.00;35.80;;;;;9.91;43.69;98530.94;6194867;28;97540;-64
2021/12/11 12:26:45;;;;;;;;;48.00;35.50;;;;;9.83;43.97;98531.22;6187749;28;97520;-65
2021/12/11 12:29:51;;;;;;;;;50.50;38.00;;;;;9.79;44.15;98530.03;6169836;28;96813;-64
2021/12/11 12:32:56;;;;;;;;;50.00;38.00;;;;;9.78;44.32;98530.25;6164103;28;97442;-64
2021/12/11 12:36:00;;;;;;;;;43.75;36.00;;;;;9.79;44.21;98546.19;6160932;28;96712;-63
2021/12/11 12:39:06;;;;;;;;;48.00;36.00;;;;;9.78;43.91;98543.72;6143059;28;97374;-64
2021/12/11 12:42:18;;;;;;;;;46.80;37.80;;;;;9.77;44.44;98531.34;6182877;28;97816;-63
2021/12/11 12:45:28;;;;;;;;;48.00;36.40;;;;;9.70;44.50;98542.16;6187756;28;99511;-64
2021/12/11 12:48:32;;;;;;;;;49.40;36.60;;;;;9.56;44.37;98538.81;6174477;28;97904;-64
2021/12/11 12:51:37;;;;;;;;;45.00;34.75;;;;;9.52;44.55;98540.31;6161856;28;96833;-64
2021/12/11 12:54:41;;;;;;;;;49.40;37.00;;;;;9.50;44.66;98544.25;6158269;28;98101;-64
2021/12/11 12:57:51;;;;;;;;;43.00;34.75;;;;;9.51;44.95;98541.34;6165474;28;98008;-64
2021/12/11 13:01:01;;;;;;;;;51.00;38.40;;;;;9.51;45.27;98543.22;6174847;28;98568;-65
2021/12/11 13:04:07;;;;;;;;;45.00;35.60;;;;;9.43;44.85;98547.00;6174337;28;99150;-64
2021/12/11 13:07:13;;;;;;;;;46.25;36.25;;;;;9.22;45.57;98554.66;6171342;28;96693;-63
2021/12/11 13:10:23;;;;;;;;;51.25;39.75;;;;;9.15;45.88;98554.72;6171883;28;97555;-65
2021/12/11 13:13:29;;;;;;;;;46.00;35.50;;;;;9.11;45.90;98550.84;6129809;28;98186;-64
2021/12/11 13:16:36;;;;;;;;;49.25;36.00;;;;;9.10;46.19;98550.00;6154690;28;96733;-64
2021/12/11 13:19:43;;;;;;;;;47.50;36.50;;;;;9.16;45.88;98544.78;6172879;28;97460;-64
2021/12/11 13:22:49;;;;;;;;;48.00;38.00;;;;;9.21;46.13;98543.09;6153158;28;97446;-64
2021/12/11 13:25:57;;;;;;;;;49.00;38.00;;;;;9.23;45.95;98543.69;6160337;28;97375;-64
2021/12/11 13:29:06;;;;;;;;;49.80;37.80;;;;;9.27;45.41;98549.44;6138054;28;98562;-64
2021/12/11 13:32:14;;;;;;;;;46.60;35.00;;;;;9.27;45.45;98541.38;6173481;28;97455;-63
2021/12/11 13:35:21;;;;;;;;;48.40;38.60;;;;;9.30;47.05;98543.63;6174496;28;97632;-63
2021/12/11 13:38:27;;;;;;;;;48.80;37.00;;;;;9.37;47.04;98553.28;6179347;28;98539;-64
2021/12/11 13:41:34;;;;;;;;;48.60;39.00;;;;;9.38;46.04;98557.59;6171698;28;97775;-64
2021/12/11 13:44:53;;;;;;;;;49.00;39.00;;;;;9.40;45.62;98570.84;6154535;28;97387;-65
2021/12/11 13:47:57;;;;;;;;;51.33;38.00;;;;;9.37;45.69;98569.44;6176499;28;97338;-64
2021/12/11 13:51:06;;;;;;;;;48.00;37.80;;;;;9.31;45.58;98575.69;6171099;28;97942;-64
2021/12/11 13:54:10;;;;;;;;;44.60;36.00;;;;;9.36;45.64;98580.41;6149544;28;99496;-62
2021/12/11 13:57:24;;;;;;;;;49.00;37.80;;;;;9.36;45.48;98589.28;6168662;28;97650;-64
2021/12/11 14:00:34;;;;;;;;;43.75;36.50;;;;;9.36;45.47;98583.91;6149929;28;98321;-64
2021/12/11 14:03:45;;;;;;;;;47.40;37.40;;;;;9.34;45.45;98596.75;6167816;28;97532;-65
2021/12/11 14:07:03;;;;;;;;;49.00;39.00;;;;;9.21;45.38;98590.66;6176166;28;97455;-65
2021/12/11 14:10:19;;;;;;;;;51.00;39.40;;;;;9.23;45.69;98613.63;6179301;28;97626;-66
2021/12/11 14:13:23;;;;;;;;;45.67;36.33;;;;;9.16;46.19;98620.09;6167960;28;98395;-66
2021/12/11 14:16:29;;;;;;;;;50.00;39.00;;;;;8.90;46.36;98603.09;6158371;28;98409;-67
2021/12/11 14:19:32;;;;;;;;;45.67;36.00;;;;;8.97;46.32;98619.19;6170041;28;96984;-67
2021/12/11 14:22:37;;;;;;;;;49.00;38.20;;;;;8.91;46.49;98633.50;6180836;28;98364;-65
2021/12/11 14:25:41;;;;;;;;;53.00;39.00;;;;;8.88;46.78;98632.09;6179485;28;96638;-66
2021/12/11 14:28:45;;;;;;;;;49.00;40.00;;;;;8.71;46.54;98628.25;6175167;28;97454;-65
2021/12/11 14:31:51;;;;;;;;;48.25;38.75;;;;;8.81;47.03;98646.59;6174037;28;97368;-66
2021/12/11 14:34:56;;;;;;;;;52.00;39.00;;;;;8.75;47.21;98650.97;6176188;28;97236;-66
2021/12/11 14:37:59;;;;;;;;;49.60;38.00;;;;;8.73;47.22;98660.31;6177108;28;98192;-67
2021/12/11 14:41:05;;;;;;;;;48.50;39.00;;;;;8.70;47.63;98674.97;6160432;28;98180;-66
2021/12/11 14:44:11;;;;;;;;;49.00;39.00;;;;;8.65;47.63;98675.63;6160584;28;96962;-67
2021/12/11 14:47:17;;;;;;;;;52.80;41.00;;;;;8.64;47.85;98678.53;6143135;28;98496;-67
2021/12/11 14:50:24;;;;;;;;;49.60;40.00;;;;;8.61;47.86;98682.47;6184054;28;96752;-67
2021/12/11 14:53:32;;;;;;;;;49.40;39.40;;;;;8.58;47.93;98682.09;6157167;28;97884;-67
2021/12/11 14:56:39;;;;;;;;;52.33;40.00;;;;;8.54;47.98;98686.25;6175186;28;96979;-67
2021/12/11 14:59:45;;;;;;;;;50.20;40.40;;;;;8.56;48.13;98686.84;6182631;28;97096;-67
2021/12/11 15:02:51;;;;;;;;;52.00;40.00;;;;;8.57;47.97;98691.19;6159558;28;96765;-67
2021/12/11 15:05:54;;;;;;;;;51.00;39.00;;;;;8.42;48.13;98680.69;6176696;28;97471;-67
2021/12/11 15:08:58;;;;;;;;;50.60;40.00;;;;;8.42;48.36;98707.56;6155758;28;97109;-66
2021/12/11 15:12:02;;;;;;;;;49.40;40.20;;;;;8.38;48.61;98713.56;6156416;28;97617;-68
2021/12/11 15:15:07;;;;;;;;;51.20;39.60;;;;;8.31;48.83;98707.41;6177812;28;98041;-66
2021/12/11 15:18:12;;;;;;;;;52.00;41.40;;;;;8.34;48.93;98715.88;6178519;28;97461;-66
2021/12/11 15:21:20;;;;;;;;;49.33;40.00;;;;;8.42;48.84;98722.84;6135864;28;98447;-67
2021/12/11 15:24:24;;;;;;;;;50.20;39.80;;;;;8.48;48.65;98724.69;6171465;28;98111;-66
2021/12/11 15:27:28;;;;;;;;;53.00;41.00;;;;;8.52;48.64;98725.91;6177874;28;96995;-66
2021/12/11 15:30:34;;;;;;;;;51.00;41.00;;;;;8.53;48.59;98728.41;6163682;28;97424;-67
2021/12/11 15:33:40;;;;;;;;;54.75;41.75;;;;;8.58;48.63;98727.75;6183201;28;98163;-67
2021/12/11 15:36:46;;;;;;;;;53.40;41.20;;;;;8.62;48.47;98734.34;6152065;28;97355;-67
2021/12/11 15:39:51;;;;;;;;;52.60;42.00;;;;;8.67;48.44;98727.31;6173655;28;97211;-67
2021/12/11 15:42:57;;;;;;;;;50.00;39.00;;;;;8.73;48.30;98732.88;6190588;28;97457;-66
2021/12/11 15:46:05;;;;;;;;;52.67;41.00;;;;;8.75;48.26;98733.50;6161262;28;96990;-67
2021/12/11 15:49:11;;;;;;;;;50.40;41.40;;;;;8.79;48.19;98729.34;6185972;28;98407;-67
2021/12/11 15:52:16;;;;;;;;;54.00;41.20;;;;;8.81;48.22;98733.44;6142911;28;98232;-67
2021/12/11 15:55:20;;;;;;;;;51.20;39.00;;;;;8.82;48.17;98743.16;6167243;28;97521;-67
2021/12/11 15:58:24;;;;;;;;;51.60;41.00;;;;;8.84;48.22;98737.59;6156536;28;96662;-66
2021/12/11 16:01:31;;;;;;;;;55.00;42.50;;;;;8.83;48.08;98746.69;6176201;28;97419;-66
2021/12/11 16:04:38;;;;;;;;;49.25;40.00;;;;;8.85;47.82;98758.03;6174311;28;97102;-67
2021/12/11 16:07:41;;;;;;;;;52.00;41.00;;;;;8.86;47.70;98763.19;6180954;28;96331;-66
2021/12/11 16:10:45;;;;;;;;;52.60;40.60;;;;;8.86;47.67;98770.44;6158320;28;97403;-66
2021/12/11 16:13:49;;;;;;;;;52.20;41.00;;;;;8.86;47.98;98776.63;6156251;28;99586;-67
2021/12/11 16:16:55;;;;;;;;;54.60;43.00;;;;;8.88;48.16;98784.50;6145698;28;98389;-67
2021/12/11 16:20:02;;;;;;;;;58.00;44.80;;;;;8.86;48.33;98790.06;6178522;28;97183;-65
2021/12/11 16:23:05;;;;;;;;;55.00;42.60;;;;;8.89;48.35;98799.59;6175986;28;98144;-66
2021/12/11 16:26:09;;;;;;;;;55.60;44.00;;;;;8.91;48.31;98803.72;6164788;28;99412;-67
2021/12/11 16:29:14;;;;;;;;;60.60;44.00;;;;;8.91;48.32;98810.94;6161946;28;98170;-66
2021/12/11 16:32:18;;;;;;;;;56.00;43.00;;;;;8.65;48.69;98810.00;6178509;28;97431;-67
2021/12/11 16:35:25;;;;;;;;;58.00;45.40;;;;;8.76;48.77;98826.50;6179288;28;96626;-66
2021/12/11 16:38:33;;;;;;;;;56.40;44.40;;;;;8.65;49.00;98833.34;6182561;28;96687;-66
2021/12/11 16:41:41;;;;;;;;;57.75;46.00;;;;;8.54;49.35;98832.16;6162528;28;96702;-67
2021/12/11 16:44:44;;;;;;;;;62.00;46.00;;;;;8.46;49.55;98839.59;6178701;28;96673;-66
2021/12/11 16:47:48;;;;;;;;;59.80;44.00;;;;;8.39;49.76;98841.47;6147484;28;98684;-66
2021/12/11 16:50:52;;;;;;;;;59.40;44.00;;;;;8.20;50.30;98848.50;6160546;28;98010;-66